Ana Sayfa
METAR-TAF:

METAR-TAF

Havaalanları :

McComb, Mississipi, Amerika Birleşik Devletleri

Enlem: 31-10-42N, Boylam: 090-28-19W, yükseklik: 126 m

Güncel hava durumu gözlemi

Rapor saat 18:53 UTC de 46 dakika önce yapıldı.
Sakin rüzgar
Sıcaklık 33°C
Nem 53%
Basınç 1015 hPa
Görüş mesafesi: 16.1 km
4900 ft yükseklikte parçalı çok bulutlu

METAR: KMCB 251853Z AUTO 00000KT 10SM BKN049 33/22 A2996 RMK AO2 SLP140 T03330222

Saat: 14:39 (19:39 UTC)

Tahmin

Rapor saat 17:41 UTC de 1 saat ve 58 dakika önce yapıldı.
Ayın 25'si saat 18 UTC'den ayın 26'si saat 18 UTC'ye kadar geçerli Tahmin
Rüzgar kuzeydan kt
Görüş mesafesi: 10 km
4000 ft yükseklikte az bulutlu
5000 ft yükseklikte parçalı bulutlu
8000 ft yükseklikte parçalı bulutlu
Ayın 26'si saat 0000 UTC'den
Rüzgar kuzeydan kt
Görüş mesafesi: 10 km
5000 ft yükseklikte az bulutlu
25000 ft yükseklikte az bulutlu

TAF: KMCB 251741Z 2518/2618 00000KT P6SM FEW040 SCT050 SCT080 FM260000 00000KT P6SM FEW050 FEW250

4.000'den fazla havaalanı için hava durumu gözlemleri ve tahminleri (METAR ve TAF raporları).

Kullanılabilir istasyonlar harita üzerinde sarı ve kırmızı noktalarla gösterilir.

İstasyonun adını görmek için fareyi noktanın üzerinde gezdirin.

Sonrasında hava gözlem ve tahminlerini görmek için tıklayın.

Haritayı değiştirmek için: yaklaştırmak için siyah artı işaretli yeşil düğmeye ve uzaklaştırmak için de eksi işaretli düğmeye hızla tıklayın; bitişik haritalar için yeşil okları kullanın.


METAR-TAF: